Jamaica, NY

2:20 PM EDT on September 22, 2014 (GMT -0400)
Kennedy International | Change Station
CLOSE
Current Station
Airport
Location: New York JFK,
Elevation: 23 ft
Nearby Weather Stations
Active Advisory: Coastal Hazard Statement

Elev 23 ft 40.64 °N, 73.76 °W | Updated 29 minutes ago

Mostly Cloudy
Mostly Cloudy
71 °F
Feels Like 71 °F
N
17
Wind Variable Wind from West
Gusts 25 mph

Today
High -- | Low -- °F
--% Chance of Precip.
Yesterday
High -- | Low -- °F
Precip. -- in
6:42 AM 6:52 PM
Waning Crescent, 2% visible
Pressure 29.91 in
Visibility 10.0 miles
Clouds Mostly Cloudy 4600 ft
Dew Point 48 °F
Humidity 44%
Rainfall 0.01 in
Snow Depth Not available.
UV 4 out of 12
Pollen 4.00 out of 12
Air Quality Not available.
Flu Activity Not available.
METAR KJFK 221751Z 28015G22KT 10SM BKN046 22/09 A2991 RMK AO2 PK WND 29027/1654 SLP127 T02170089 10228 20189 51013

More Conditions Fewer Conditions

Pressure 29.91 in
Visibility 10.0 miles
Clouds Mostly Cloudy 4600 ft
Dew Point 48 °F
Humidity 44%
Rainfall 0.01 in
Snow Depth Not available.
UV 4 out of 12
Pollen 4.00 out of 12
Air Quality Not available.
Flu Activity Not available.
METAR KJFK 221751Z 28015G22KT 10SM BKN046 22/09 A2991 RMK AO2 PK WND 29027/1654 SLP127 T02170089 10228 20189 51013

More Conditions Fewer Conditions

10-Day Weather Forecast

Almanac

Astronomy

Sep. 22, 2014 Rise Set
Actual Time 6:42 AM EDT 6:52 PM EDT
Civil Twilight 6:15 AM EDT 7:19 PM EDT
Nautical Twilight 5:43 AM EDT 7:51 PM EDT
Astronomical Twilight 5:10 AM EDT 8:23 PM EDT
Moon 5:08 AM EDT 5:58 PM EDT
Length of Visible Light 13h 04m
Length of Day
12h 09m
Tomorrow will be 2m 40s shorter.
Waning Crescent, 2% of the Moon is Illuminated
Today
Waning Crescent
Sep 24
New
Oct 1
First Quarter
Oct 8
Full
Oct 15
Last Quarter

Today's Extremes

State Highs State Lows

Community

WunderPhotos

Upload Photos

1,755,506 photos uploaded!

WunderBlogs® & News

By Dr. Jeff Masters
Director of Meteorology, Weather Underground
By Kari Strenfel
Meteorologist, Weather Underground
By Christopher C. Burt
Weather Historian, Weather Underground
September 22, 2014
September 22, 2014
September 22, 2014

Nearby

Snow Depth

Station Depth Elevation
No new snow has been reported.

Earthquake Activity

City Distance Mag. Time & Date
No recent earthquake activity has been reported nearby.
Minimum magnitude displayed is 2.5.

Coastal Water Temperatures

Place Temperature
Sandy Hook, NJ 69.1 °F
The Battery, NY 71.1 °F
Bergen Point West Reach, NJ 70.0 °F

Nearby Weather Stations